sensor_id;sensor_type;location;lat;lon;timestamp;P1;durP1;ratioP1;P2;durP2;ratioP2
29824;SDS011;16713;52.916;12.834;2022-07-03T00:02:23;5.68;;;4.97;;
29824;SDS011;16713;52.916;12.834;2022-07-03T00:04:50;7.90;;;6.38;;
29824;SDS011;16713;52.916;12.834;2022-07-03T00:07:16;8.30;;;5.80;;
29824;SDS011;16713;52.916;12.834;2022-07-03T00:09:44;7.80;;;5.15;;
29824;SDS011;16713;52.916;12.834;2022-07-03T00:12:12;8.27;;;5.40;;
29824;SDS011;16713;52.916;12.834;2022-07-03T00:14:38;7.65;;;5.53;;
29824;SDS011;16713;52.916;12.834;2022-07-03T00:17:05;6.10;;;5.50;;
29824;SDS011;16713;52.916;12.834;2022-07-03T00:19:32;6.55;;;5.63;;
29824;SDS011;16713;52.916;12.834;2022-07-03T00:22:02;8.88;;;5.47;;
29824;SDS011;16713;52.916;12.834;2022-07-03T00:24:43;9.25;;;5.97;;
29824;SDS011;16713;52.916;12.834;2022-07-03T00:27:15;7.95;;;5.38;;
29824;SDS011;16713;52.916;12.834;2022-07-03T00:29:43;6.13;;;5.53;;
29824;SDS011;16713;52.916;12.834;2022-07-03T00:32:12;8.57;;;5.47;;
29824;SDS011;16713;52.916;12.834;2022-07-03T00:34:40;6.88;;;5.25;;
29824;SDS011;16713;52.916;12.834;2022-07-03T00:37:09;8.70;;;5.55;;
29824;SDS011;16713;52.916;12.834;2022-07-03T00:39:37;6.40;;;5.57;;
29824;SDS011;16713;52.916;12.834;2022-07-03T00:42:05;5.63;;;4.90;;
29824;SDS011;16713;52.916;12.834;2022-07-03T00:47:32;5.88;;;5.35;;
29824;SDS011;16713;52.916;12.834;2022-07-03T00:50:06;6.40;;;5.80;;
29824;SDS011;16713;52.916;12.834;2022-07-03T00:52:34;6.15;;;5.50;;
29824;SDS011;16713;52.916;12.834;2022-07-03T00:55:02;6.80;;;5.53;;
29824;SDS011;16713;52.916;12.834;2022-07-03T00:57:33;6.35;;;5.65;;
29824;SDS011;16713;52.916;12.834;2022-07-03T01:00:02;12.73;;;5.57;;
29824;SDS011;16713;52.916;12.834;2022-07-03T01:11:00;7.55;;;5.93;;
29824;SDS011;16713;52.916;12.834;2022-07-03T01:16:07;10.07;;;6.40;;
29824;SDS011;16713;52.916;12.834;2022-07-03T01:27:22;6.60;;;5.60;;
29824;SDS011;16713;52.916;12.834;2022-07-03T01:30:08;15.73;;;6.07;;
29824;SDS011;16713;52.916;12.834;2022-07-03T01:32:44;8.55;;;6.38;;
29824;SDS011;16713;52.916;12.834;2022-07-03T01:35:13;10.38;;;6.70;;
29824;SDS011;16713;52.916;12.834;2022-07-03T01:37:47;6.93;;;5.45;;
29824;SDS011;16713;52.916;12.834;2022-07-03T01:40:16;8.48;;;6.78;;
29824;SDS011;16713;52.916;12.834;2022-07-03T01:42:45;9.88;;;6.32;;
29824;SDS011;16713;52.916;12.834;2022-07-03T01:45:13;12.88;;;7.32;;
29824;SDS011;16713;52.916;12.834;2022-07-03T01:47:41;6.50;;;5.90;;
29824;SDS011;16713;52.916;12.834;2022-07-03T01:50:12;7.15;;;6.40;;
29824;SDS011;16713;52.916;12.834;2022-07-03T01:52:41;9.88;;;6.43;;
29824;SDS011;16713;52.916;12.834;2022-07-03T01:55:12;10.13;;;6.35;;
29824;SDS011;16713;52.916;12.834;2022-07-03T01:57:44;8.02;;;6.88;;
29824;SDS011;16713;52.916;12.834;2022-07-03T02:00:12;7.35;;;6.45;;
29824;SDS011;16713;52.916;12.834;2022-07-03T02:10:45;9.32;;;6.13;;
29824;SDS011;16713;52.916;12.834;2022-07-03T02:13:19;9.60;;;6.70;;
29824;SDS011;16713;52.916;12.834;2022-07-03T02:15:50;8.10;;;6.53;;
29824;SDS011;16713;52.916;12.834;2022-07-03T02:18:27;7.25;;;5.85;;
29824;SDS011;16713;52.916;12.834;2022-07-03T02:21:14;7.07;;;6.38;;
29824;SDS011;16713;52.916;12.834;2022-07-03T02:26:46;7.22;;;6.43;;
29824;SDS011;16713;52.916;12.834;2022-07-03T02:29:36;9.77;;;6.78;;
29824;SDS011;16713;52.916;12.834;2022-07-03T02:32:11;10.38;;;6.60;;
29824;SDS011;16713;52.916;12.834;2022-07-03T02:34:42;10.15;;;7.22;;
29824;SDS011;16713;52.916;12.834;2022-07-03T02:37:19;7.32;;;6.00;;
29824;SDS011;16713;52.916;12.834;2022-07-03T02:39:51;10.38;;;6.80;;
29824;SDS011;16713;52.916;12.834;2022-07-03T02:42:39;6.85;;;6.13;;
29824;SDS011;16713;52.916;12.834;2022-07-03T02:45:11;8.18;;;6.10;;
29824;SDS011;16713;52.916;12.834;2022-07-03T02:47:57;7.97;;;6.85;;
29824;SDS011;16713;52.916;12.834;2022-07-03T02:50:31;8.70;;;6.50;;
29824;SDS011;16713;52.916;12.834;2022-07-03T02:53:20;7.90;;;6.78;;
29824;SDS011;16713;52.916;12.834;2022-07-03T02:55:53;7.95;;;5.85;;
29824;SDS011;16713;52.916;12.834;2022-07-03T03:06:35;11.65;;;7.20;;
29824;SDS011;16713;52.916;12.834;2022-07-03T03:09:03;12.23;;;6.95;;
29824;SDS011;16713;52.916;12.834;2022-07-03T03:11:46;8.43;;;7.28;;
29824;SDS011;16713;52.916;12.834;2022-07-03T03:14:15;8.63;;;6.85;;
29824;SDS011;16713;52.916;12.834;2022-07-03T03:16:46;8.35;;;6.93;;
29824;SDS011;16713;52.916;12.834;2022-07-03T03:19:13;11.05;;;7.85;;
29824;SDS011;16713;52.916;12.834;2022-07-03T03:22:03;8.55;;;6.90;;
29824;SDS011;16713;52.916;12.834;2022-07-03T03:24:53;9.07;;;6.68;;
29824;SDS011;16713;52.916;12.834;2022-07-03T03:27:21;9.63;;;6.82;;
29824;SDS011;16713;52.916;12.834;2022-07-03T03:29:48;9.90;;;7.60;;
29824;SDS011;16713;52.916;12.834;2022-07-03T03:32:15;12.30;;;7.70;;
29824;SDS011;16713;52.916;12.834;2022-07-03T03:34:42;8.30;;;6.90;;
29824;SDS011;16713;52.916;12.834;2022-07-03T03:37:09;9.90;;;7.22;;
29824;SDS011;16713;52.916;12.834;2022-07-03T03:39:35;10.80;;;7.72;;
29824;SDS011;16713;52.916;12.834;2022-07-03T03:42:03;9.85;;;8.25;;
29824;SDS011;16713;52.916;12.834;2022-07-03T03:44:30;10.75;;;7.50;;
29824;SDS011;16713;52.916;12.834;2022-07-03T03:46:56;9.40;;;8.07;;
29824;SDS011;16713;52.916;12.834;2022-07-03T03:49:23;9.68;;;7.82;;
29824;SDS011;16713;52.916;12.834;2022-07-03T03:51:50;9.23;;;7.00;;
29824;SDS011;16713;52.916;12.834;2022-07-03T03:54:16;10.75;;;8.20;;
29824;SDS011;16713;52.916;12.834;2022-07-03T03:56:43;9.27;;;7.40;;
29824;SDS011;16713;52.916;12.834;2022-07-03T03:59:09;8.77;;;7.75;;
29824;SDS011;16713;52.916;12.834;2022-07-03T04:01:36;11.13;;;8.93;;
29824;SDS011;16713;52.916;12.834;2022-07-03T04:04:03;9.50;;;7.70;;
29824;SDS011;16713;52.916;12.834;2022-07-03T04:06:29;10.75;;;8.20;;
29824;SDS011;16713;52.916;12.834;2022-07-03T04:08:56;8.88;;;7.88;;
29824;SDS011;16713;52.916;12.834;2022-07-03T04:11:22;11.32;;;7.93;;
29824;SDS011;16713;52.916;12.834;2022-07-03T04:13:49;8.48;;;7.57;;
29824;SDS011;16713;52.916;12.834;2022-07-03T04:16:15;8.63;;;7.72;;
29824;SDS011;16713;52.916;12.834;2022-07-03T04:18:42;9.70;;;7.65;;
29824;SDS011;16713;52.916;12.834;2022-07-03T04:21:09;8.82;;;6.97;;
29824;SDS011;16713;52.916;12.834;2022-07-03T04:23:36;12.38;;;7.35;;
29824;SDS011;16713;52.916;12.834;2022-07-03T04:26:04;9.15;;;7.22;;
29824;SDS011;16713;52.916;12.834;2022-07-03T04:28:35;12.00;;;8.52;;
29824;SDS011;16713;52.916;12.834;2022-07-03T04:31:01;11.07;;;7.25;;
29824;SDS011;16713;52.916;12.834;2022-07-03T04:33:28;12.25;;;7.40;;
29824;SDS011;16713;52.916;12.834;2022-07-03T04:35:55;8.20;;;7.07;;
29824;SDS011;16713;52.916;12.834;2022-07-03T04:38:21;8.45;;;7.60;;
29824;SDS011;16713;52.916;12.834;2022-07-03T04:40:48;11.27;;;7.88;;
29824;SDS011;16713;52.916;12.834;2022-07-03T04:43:14;9.57;;;7.35;;
29824;SDS011;16713;52.916;12.834;2022-07-03T04:45:44;8.32;;;7.00;;
29824;SDS011;16713;52.916;12.834;2022-07-03T04:48:10;10.43;;;6.80;;
29824;SDS011;16713;52.916;12.834;2022-07-03T04:50:37;9.20;;;6.85;;
29824;SDS011;16713;52.916;12.834;2022-07-03T04:53:03;7.35;;;6.53;;
29824;SDS011;16713;52.916;12.834;2022-07-03T04:55:30;9.52;;;6.20;;
29824;SDS011;16713;52.916;12.834;2022-07-03T04:57:57;8.65;;;6.38;;
29824;SDS011;16713;52.916;12.834;2022-07-03T05:00:23;10.57;;;7.13;;
29824;SDS011;16713;52.916;12.834;2022-07-03T05:02:50;10.38;;;7.00;;
29824;SDS011;16713;52.916;12.834;2022-07-03T05:05:17;9.48;;;7.03;;
29824;SDS011;16713;52.916;12.834;2022-07-03T05:07:43;8.75;;;5.97;;
29824;SDS011;16713;52.916;12.834;2022-07-03T05:10:10;7.82;;;6.18;;
29824;SDS011;16713;52.916;12.834;2022-07-03T05:12:37;8.10;;;5.80;;
29824;SDS011;16713;52.916;12.834;2022-07-03T05:15:07;7.55;;;6.10;;
29824;SDS011;16713;52.916;12.834;2022-07-03T05:17:34;7.10;;;6.28;;
29824;SDS011;16713;52.916;12.834;2022-07-03T05:20:01;6.90;;;5.85;;
29824;SDS011;16713;52.916;12.834;2022-07-03T05:22:48;9.18;;;6.72;;
29824;SDS011;16713;52.916;12.834;2022-07-03T05:25:15;11.32;;;5.95;;
29824;SDS011;16713;52.916;12.834;2022-07-03T05:27:41;9.93;;;6.10;;
29824;SDS011;16713;52.916;12.834;2022-07-03T05:30:08;9.65;;;6.13;;
29824;SDS011;16713;52.916;12.834;2022-07-03T05:32:35;7.22;;;5.35;;
29824;SDS011;16713;52.916;12.834;2022-07-03T05:35:02;8.55;;;5.38;;
29824;SDS011;16713;52.916;12.834;2022-07-03T05:37:29;7.40;;;4.80;;
29824;SDS011;16713;52.916;12.834;2022-07-03T05:39:56;6.00;;;4.95;;
29824;SDS011;16713;52.916;12.834;2022-07-03T05:42:22;5.72;;;5.13;;
29824;SDS011;16713;52.916;12.834;2022-07-03T05:44:49;8.70;;;4.80;;
29824;SDS011;16713;52.916;12.834;2022-07-03T05:47:15;8.60;;;5.50;;
29824;SDS011;16713;52.916;12.834;2022-07-03T05:49:42;5.88;;;4.97;;
29824;SDS011;16713;52.916;12.834;2022-07-03T05:52:09;6.93;;;5.20;;
29824;SDS011;16713;52.916;12.834;2022-07-03T05:54:36;5.63;;;4.72;;
29824;SDS011;16713;52.916;12.834;2022-07-03T05:57:03;9.55;;;5.63;;
29824;SDS011;16713;52.916;12.834;2022-07-03T05:59:30;8.00;;;4.78;;
29824;SDS011;16713;52.916;12.834;2022-07-03T06:01:57;10.07;;;4.90;;
29824;SDS011;16713;52.916;12.834;2022-07-03T06:04:24;6.78;;;4.95;;
29824;SDS011;16713;52.916;12.834;2022-07-03T06:06:51;7.93;;;4.93;;
29824;SDS011;16713;52.916;12.834;2022-07-03T06:09:17;6.82;;;4.68;;
29824;SDS011;16713;52.916;12.834;2022-07-03T06:11:44;6.60;;;4.57;;
29824;SDS011;16713;52.916;12.834;2022-07-03T06:14:10;5.35;;;4.85;;
29824;SDS011;16713;52.916;12.834;2022-07-03T06:16:37;5.13;;;4.22;;
29824;SDS011;16713;52.916;12.834;2022-07-03T06:19:03;6.32;;;4.47;;
29824;SDS011;16713;52.916;12.834;2022-07-03T06:21:30;8.88;;;4.90;;
29824;SDS011;16713;52.916;12.834;2022-07-03T06:23:56;6.50;;;4.78;;
29824;SDS011;16713;52.916;12.834;2022-07-03T06:26:23;8.40;;;4.25;;
29824;SDS011;16713;52.916;12.834;2022-07-03T06:28:50;8.10;;;4.78;;
29824;SDS011;16713;52.916;12.834;2022-07-03T06:31:17;5.63;;;4.45;;
29824;SDS011;16713;52.916;12.834;2022-07-03T06:33:44;13.18;;;5.03;;
29824;SDS011;16713;52.916;12.834;2022-07-03T06:36:11;5.22;;;4.20;;
29824;SDS011;16713;52.916;12.834;2022-07-03T06:38:37;6.28;;;4.53;;
29824;SDS011;16713;52.916;12.834;2022-07-03T06:41:04;5.05;;;4.20;;
29824;SDS011;16713;52.916;12.834;2022-07-03T06:43:30;8.48;;;4.10;;
29824;SDS011;16713;52.916;12.834;2022-07-03T06:45:57;5.47;;;4.50;;
29824;SDS011;16713;52.916;12.834;2022-07-03T06:48:24;4.55;;;4.15;;
29824;SDS011;16713;52.916;12.834;2022-07-03T06:50:50;5.60;;;4.40;;
29824;SDS011;16713;52.916;12.834;2022-07-03T06:53:17;8.35;;;4.28;;
29824;SDS011;16713;52.916;12.834;2022-07-03T06:55:43;5.70;;;3.85;;
29824;SDS011;16713;52.916;12.834;2022-07-03T06:58:10;5.80;;;3.70;;
29824;SDS011;16713;52.916;12.834;2022-07-03T07:00:36;5.97;;;3.70;;
29824;SDS011;16713;52.916;12.834;2022-07-03T07:03:04;4.68;;;3.90;;
29824;SDS011;16713;52.916;12.834;2022-07-03T07:05:31;6.45;;;3.38;;
29824;SDS011;16713;52.916;12.834;2022-07-03T07:07:58;3.40;;;3.10;;
29824;SDS011;16713;52.916;12.834;2022-07-03T07:10:24;5.28;;;3.28;;
29824;SDS011;16713;52.916;12.834;2022-07-03T07:12:51;5.68;;;3.08;;
29824;SDS011;16713;52.916;12.834;2022-07-03T07:15:17;4.15;;;3.70;;
29824;SDS011;16713;52.916;12.834;2022-07-03T07:17:44;7.47;;;4.47;;
29824;SDS011;16713;52.916;12.834;2022-07-03T07:20:10;4.82;;;3.72;;
29824;SDS011;16713;52.916;12.834;2022-07-03T07:22:37;3.50;;;3.20;;
29824;SDS011;16713;52.916;12.834;2022-07-03T07:25:04;6.75;;;3.35;;
29824;SDS011;16713;52.916;12.834;2022-07-03T07:27:31;5.78;;;3.53;;
29824;SDS011;16713;52.916;12.834;2022-07-03T07:29:57;8.07;;;3.38;;
29824;SDS011;16713;52.916;12.834;2022-07-03T07:32:24;3.25;;;2.95;;
29824;SDS011;16713;52.916;12.834;2022-07-03T07:34:51;3.78;;;3.20;;
29824;SDS011;16713;52.916;12.834;2022-07-03T07:37:17;3.40;;;3.10;;
29824;SDS011;16713;52.916;12.834;2022-07-03T07:39:43;4.32;;;2.88;;
29824;SDS011;16713;52.916;12.834;2022-07-03T07:42:11;9.07;;;3.20;;
29824;SDS011;16713;52.916;12.834;2022-07-03T07:44:37;5.28;;;2.90;;
29824;SDS011;16713;52.916;12.834;2022-07-03T07:47:04;4.72;;;3.42;;
29824;SDS011;16713;52.916;12.834;2022-07-03T07:49:30;5.10;;;3.70;;
29824;SDS011;16713;52.916;12.834;2022-07-03T07:51:57;3.53;;;3.20;;
29824;SDS011;16713;52.916;12.834;2022-07-03T07:54:23;6.03;;;3.10;;
29824;SDS011;16713;52.916;12.834;2022-07-03T07:56:50;3.33;;;3.03;;
29824;SDS011;16713;52.916;12.834;2022-07-03T07:59:16;6.15;;;3.60;;
29824;SDS011;16713;52.916;12.834;2022-07-03T08:01:43;4.03;;;2.92;;
29824;SDS011;16713;52.916;12.834;2022-07-03T08:04:28;3.83;;;2.72;;
29824;SDS011;16713;52.916;12.834;2022-07-03T08:07:13;3.08;;;2.58;;
29824;SDS011;16713;52.916;12.834;2022-07-03T08:09:40;4.45;;;2.53;;
29824;SDS011;16713;52.916;12.834;2022-07-03T08:12:07;3.50;;;2.80;;
29824;SDS011;16713;52.916;12.834;2022-07-03T08:14:33;5.30;;;3.10;;
29824;SDS011;16713;52.916;12.834;2022-07-03T08:17:00;5.60;;;2.80;;
29824;SDS011;16713;52.916;12.834;2022-07-03T08:19:27;4.82;;;3.55;;
29824;SDS011;16713;52.916;12.834;2022-07-03T08:21:53;3.58;;;2.80;;
29824;SDS011;16713;52.916;12.834;2022-07-03T08:24:20;3.45;;;3.15;;
29824;SDS011;16713;52.916;12.834;2022-07-03T08:26:46;5.13;;;3.28;;
29824;SDS011;16713;52.916;12.834;2022-07-03T08:29:13;3.00;;;2.70;;
29824;SDS011;16713;52.916;12.834;2022-07-03T08:31:39;2.97;;;2.67;;
29824;SDS011;16713;52.916;12.834;2022-07-03T08:34:06;7.85;;;2.90;;
29824;SDS011;16713;52.916;12.834;2022-07-03T08:36:32;3.50;;;2.78;;
29824;SDS011;16713;52.916;12.834;2022-07-03T08:38:59;4.00;;;3.20;;
29824;SDS011;16713;52.916;12.834;2022-07-03T08:41:26;3.20;;;2.88;;
29824;SDS011;16713;52.916;12.834;2022-07-03T08:43:53;3.67;;;2.95;;
29824;SDS011;16713;52.916;12.834;2022-07-03T08:46:21;4.82;;;2.90;;
29824;SDS011;16713;52.916;12.834;2022-07-03T08:48:48;4.10;;;3.70;;
29824;SDS011;16713;52.916;12.834;2022-07-03T08:51:16;5.43;;;3.60;;
29824;SDS011;16713;52.916;12.834;2022-07-03T08:53:46;7.28;;;3.17;;
29824;SDS011;16713;52.916;12.834;2022-07-03T08:56:13;5.00;;;2.78;;
29824;SDS011;16713;52.916;12.834;2022-07-03T08:58:40;3.58;;;2.78;;
29824;SDS011;16713;52.916;12.834;2022-07-03T09:01:08;3.25;;;2.92;;
29824;SDS011;16713;52.916;12.834;2022-07-03T09:03:36;16.67;;;3.25;;
29824;SDS011;16713;52.916;12.834;2022-07-03T09:06:04;4.28;;;2.90;;
29824;SDS011;16713;52.916;12.834;2022-07-03T09:08:31;6.30;;;2.97;;
29824;SDS011;16713;52.916;12.834;2022-07-03T09:10:59;2.88;;;2.67;;
29824;SDS011;16713;52.916;12.834;2022-07-03T09:13:26;3.17;;;2.65;;
29824;SDS011;16713;52.916;12.834;2022-07-03T09:15:53;2.72;;;2.50;;
29824;SDS011;16713;52.916;12.834;2022-07-03T09:18:35;5.72;;;4.35;;
29824;SDS011;16713;52.916;12.834;2022-07-03T09:21:06;6.72;;;2.72;;
29824;SDS011;16713;52.916;12.834;2022-07-03T09:23:35;3.05;;;2.75;;
29824;SDS011;16713;52.916;12.834;2022-07-03T09:31:08;5.97;;;3.00;;
29824;SDS011;16713;52.916;12.834;2022-07-03T09:39:16;3.20;;;2.90;;
29824;SDS011;16713;52.916;12.834;2022-07-03T09:47:06;3.58;;;3.28;;
29824;SDS011;16713;52.916;12.834;2022-07-03T09:49:59;11.30;;;2.63;;
29824;SDS011;16713;52.916;12.834;2022-07-03T09:52:34;3.85;;;3.20;;
29824;SDS011;16713;52.916;12.834;2022-07-03T09:57:39;2.45;;;2.22;;
29824;SDS011;16713;52.916;12.834;2022-07-03T10:03:08;3.58;;;2.55;;
29824;SDS011;16713;52.916;12.834;2022-07-03T10:05:42;3.42;;;2.58;;
29824;SDS011;16713;52.916;12.834;2022-07-03T10:08:11;6.25;;;2.80;;
29824;SDS011;16713;52.916;12.834;2022-07-03T10:10:42;6.03;;;2.80;;
29824;SDS011;16713;52.916;12.834;2022-07-03T10:13:10;3.67;;;2.97;;
29824;SDS011;16713;52.916;12.834;2022-07-03T10:15:38;4.88;;;3.97;;
29824;SDS011;16713;52.916;12.834;2022-07-03T10:18:06;3.38;;;2.65;;
29824;SDS011;16713;52.916;12.834;2022-07-03T10:20:35;3.90;;;3.28;;
29824;SDS011;16713;52.916;12.834;2022-07-03T10:23:04;4.90;;;3.05;;
29824;SDS011;16713;52.916;12.834;2022-07-03T10:25:31;3.83;;;2.63;;
29824;SDS011;16713;52.916;12.834;2022-07-03T10:27:58;2.55;;;2.38;;
29824;SDS011;16713;52.916;12.834;2022-07-03T10:30:26;4.28;;;2.35;;
29824;SDS011;16713;52.916;12.834;2022-07-03T10:32:55;3.67;;;2.53;;
29824;SDS011;16713;52.916;12.834;2022-07-03T10:35:26;3.20;;;2.00;;
29824;SDS011;16713;52.916;12.834;2022-07-03T10:46:26;2.50;;;2.30;;
29824;SDS011;16713;52.916;12.834;2022-07-03T10:51:21;2.72;;;2.47;;
29824;SDS011;16713;52.916;12.834;2022-07-03T10:53:48;3.72;;;2.40;;
29824;SDS011;16713;52.916;12.834;2022-07-03T10:56:16;4.10;;;2.20;;
29824;SDS011;16713;52.916;12.834;2022-07-03T10:58:58;2.10;;;2.00;;
29824;SDS011;16713;52.916;12.834;2022-07-03T11:01:29;3.28;;;2.65;;
29824;SDS011;16713;52.916;12.834;2022-07-03T11:03:58;2.83;;;2.60;;
29824;SDS011;16713;52.916;12.834;2022-07-03T11:09:14;8.90;;;6.65;;
29824;SDS011;16713;52.916;12.834;2022-07-03T11:11:42;5.73;;;5.13;;
29824;SDS011;16713;52.916;12.834;2022-07-03T11:14:25;5.15;;;4.45;;
29824;SDS011;16713;52.916;12.834;2022-07-03T11:19:47;3.67;;;3.35;;
29824;SDS011;16713;52.916;12.834;2022-07-03T11:22:53;3.38;;;2.90;;
29824;SDS011;16713;52.916;12.834;2022-07-03T11:33:46;2.83;;;2.60;;
29824;SDS011;16713;52.916;12.834;2022-07-03T11:36:23;2.83;;;2.33;;
29824;SDS011;16713;52.916;12.834;2022-07-03T11:41:25;2.45;;;2.28;;
29824;SDS011;16713;52.916;12.834;2022-07-03T11:43:57;3.03;;;2.60;;
29824;SDS011;16713;52.916;12.834;2022-07-03T11:46:26;2.45;;;2.13;;
29824;SDS011;16713;52.916;12.834;2022-07-03T11:49:07;3.70;;;2.40;;
29824;SDS011;16713;52.916;12.834;2022-07-03T11:51:35;2.38;;;2.17;;
29824;SDS011;16713;52.916;12.834;2022-07-03T11:54:03;3.28;;;2.15;;
29824;SDS011;16713;52.916;12.834;2022-07-03T11:56:30;3.60;;;2.15;;
29824;SDS011;16713;52.916;12.834;2022-07-03T11:58:58;2.85;;;2.60;;
29824;SDS011;16713;52.916;12.834;2022-07-03T12:04:11;2.60;;;2.22;;
29824;SDS011;16713;52.916;12.834;2022-07-03T12:09:19;3.30;;;2.58;;
29824;SDS011;16713;52.916;12.834;2022-07-03T12:17:22;4.32;;;2.50;;
29824;SDS011;16713;52.916;12.834;2022-07-03T12:19:53;2.13;;;1.80;;
29824;SDS011;16713;52.916;12.834;2022-07-03T12:22:39;3.53;;;2.40;;
29824;SDS011;16713;52.916;12.834;2022-07-03T12:25:08;3.88;;;2.20;;
29824;SDS011;16713;52.916;12.834;2022-07-03T12:30:06;2.63;;;2.00;;
29824;SDS011;16713;52.916;12.834;2022-07-03T12:32:36;4.10;;;2.20;;
29824;SDS011;16713;52.916;12.834;2022-07-03T12:35:04;3.65;;;2.00;;
29824;SDS011;16713;52.916;12.834;2022-07-03T12:37:32;3.90;;;2.85;;
29824;SDS011;16713;52.916;12.834;2022-07-03T12:40:00;2.20;;;2.00;;
29824;SDS011;16713;52.916;12.834;2022-07-03T12:42:26;2.05;;;1.95;;
29824;SDS011;16713;52.916;12.834;2022-07-03T12:47:23;4.13;;;3.50;;
29824;SDS011;16713;52.916;12.834;2022-07-03T12:49:58;2.95;;;2.30;;
29824;SDS011;16713;52.916;12.834;2022-07-03T12:52:28;2.95;;;2.65;;
29824;SDS011;16713;52.916;12.834;2022-07-03T12:54:55;4.78;;;2.15;;
29824;SDS011;16713;52.916;12.834;2022-07-03T12:57:24;3.40;;;2.10;;
29824;SDS011;16713;52.916;12.834;2022-07-03T13:00:10;3.42;;;2.33;;
29824;SDS011;16713;52.916;12.834;2022-07-03T13:02:49;2.50;;;2.10;;
29824;SDS011;16713;52.916;12.834;2022-07-03T13:05:17;2.67;;;2.47;;
29824;SDS011;16713;52.916;12.834;2022-07-03T13:07:47;2.47;;;2.33;;
29824;SDS011;16713;52.916;12.834;2022-07-03T13:10:15;2.88;;;2.55;;
29824;SDS011;16713;52.916;12.834;2022-07-03T13:12:50;3.30;;;2.10;;
29824;SDS011;16713;52.916;12.834;2022-07-03T13:15:23;3.15;;;2.00;;
29824;SDS011;16713;52.916;12.834;2022-07-03T13:20:17;2.63;;;2.40;;
29824;SDS011;16713;52.916;12.834;2022-07-03T13:22:44;2.25;;;2.05;;
29824;SDS011;16713;52.916;12.834;2022-07-03T13:25:10;4.72;;;2.78;;
29824;SDS011;16713;52.916;12.834;2022-07-03T13:27:37;2.40;;;2.20;;
29824;SDS011;16713;52.916;12.834;2022-07-03T13:30:03;5.00;;;1.95;;
29824;SDS011;16713;52.916;12.834;2022-07-03T13:32:30;3.83;;;2.30;;
29824;SDS011;16713;52.916;12.834;2022-07-03T13:34:57;2.40;;;2.00;;
29824;SDS011;16713;52.916;12.834;2022-07-03T13:37:23;2.08;;;1.80;;
29824;SDS011;16713;52.916;12.834;2022-07-03T13:39:50;3.53;;;2.40;;
29824;SDS011;16713;52.916;12.834;2022-07-03T13:42:16;2.70;;;2.13;;
29824;SDS011;16713;52.916;12.834;2022-07-03T13:44:43;2.45;;;2.25;;
29824;SDS011;16713;52.916;12.834;2022-07-03T13:47:10;4.60;;;2.72;;
29824;SDS011;16713;52.916;12.834;2022-07-03T13:49:37;5.43;;;2.25;;
29824;SDS011;16713;52.916;12.834;2022-07-03T13:52:04;3.35;;;3.05;;
29824;SDS011;16713;52.916;12.834;2022-07-03T13:54:31;2.85;;;2.53;;
29824;SDS011;16713;52.916;12.834;2022-07-03T13:56:57;3.95;;;2.10;;
29824;SDS011;16713;52.916;12.834;2022-07-03T13:59:24;2.42;;;2.17;;
29824;SDS011;16713;52.916;12.834;2022-07-03T14:01:51;2.83;;;2.08;;
29824;SDS011;16713;52.916;12.834;2022-07-03T14:04:17;5.35;;;2.50;;
29824;SDS011;16713;52.916;12.834;2022-07-03T14:06:44;1.95;;;1.83;;
29824;SDS011;16713;52.916;12.834;2022-07-03T14:09:10;4.07;;;2.38;;
29824;SDS011;16713;52.916;12.834;2022-07-03T14:11:37;2.42;;;2.17;;
29824;SDS011;16713;52.916;12.834;2022-07-03T14:14:04;3.13;;;2.17;;
29824;SDS011;16713;52.916;12.834;2022-07-03T14:16:30;2.53;;;2.33;;
29824;SDS011;16713;52.916;12.834;2022-07-03T14:18:57;2.65;;;2.05;;
29824;SDS011;16713;52.916;12.834;2022-07-03T14:21:24;2.55;;;2.35;;
29824;SDS011;16713;52.916;12.834;2022-07-03T14:23:51;1.98;;;1.70;;
29824;SDS011;16713;52.916;12.834;2022-07-03T14:26:18;4.03;;;2.33;;
29824;SDS011;16713;52.916;12.834;2022-07-03T14:29:04;2.75;;;2.47;;
29824;SDS011;16713;52.916;12.834;2022-07-03T14:31:49;4.68;;;3.25;;
29824;SDS011;16713;52.916;12.834;2022-07-03T14:34:37;2.40;;;2.20;;
29824;SDS011;16713;52.916;12.834;2022-07-03T14:37:05;3.75;;;2.42;;
29824;SDS011;16713;52.916;12.834;2022-07-03T14:39:31;2.97;;;2.30;;
29824;SDS011;16713;52.916;12.834;2022-07-03T14:41:58;2.60;;;2.40;;
29824;SDS011;16713;52.916;12.834;2022-07-03T14:44:25;2.58;;;2.38;;
29824;SDS011;16713;52.916;12.834;2022-07-03T14:46:52;2.97;;;2.42;;
29824;SDS011;16713;52.916;12.834;2022-07-03T14:49:19;3.15;;;2.40;;
29824;SDS011;16713;52.916;12.834;2022-07-03T14:51:46;2.65;;;2.25;;
29824;SDS011;16713;52.916;12.834;2022-07-03T14:54:16;2.42;;;2.17;;
29824;SDS011;16713;52.916;12.834;2022-07-03T14:56:47;2.70;;;2.10;;
29824;SDS011;16713;52.916;12.834;2022-07-03T14:59:28;5.47;;;2.50;;
29824;SDS011;16713;52.916;12.834;2022-07-03T15:02:19;3.42;;;2.47;;
29824;SDS011;16713;52.916;12.834;2022-07-03T15:07:32;2.20;;;2.00;;
29824;SDS011;16713;52.916;12.834;2022-07-03T15:10:07;5.13;;;2.33;;
29824;SDS011;16713;52.916;12.834;2022-07-03T15:12:38;2.72;;;2.22;;
29824;SDS011;16713;52.916;12.834;2022-07-03T15:15:08;2.33;;;2.10;;
29824;SDS011;16713;52.916;12.834;2022-07-03T15:17:36;2.75;;;2.28;;
29824;SDS011;16713;52.916;12.834;2022-07-03T15:20:03;2.60;;;2.40;;
29824;SDS011;16713;52.916;12.834;2022-07-03T15:22:31;2.78;;;2.55;;
29824;SDS011;16713;52.916;12.834;2022-07-03T15:25:00;4.07;;;3.33;;
29824;SDS011;16713;52.916;12.834;2022-07-03T15:27:28;3.40;;;2.20;;
29824;SDS011;16713;52.916;12.834;2022-07-03T15:29:55;3.35;;;2.53;;
29824;SDS011;16713;52.916;12.834;2022-07-03T15:32:23;3.25;;;2.95;;
29824;SDS011;16713;52.916;12.834;2022-07-03T15:34:50;2.35;;;2.15;;
29824;SDS011;16713;52.916;12.834;2022-07-03T15:40:16;3.10;;;2.20;;
29824;SDS011;16713;52.916;12.834;2022-07-03T15:42:51;2.85;;;2.33;;
29824;SDS011;16713;52.916;12.834;2022-07-03T15:48:44;3.58;;;2.50;;
29824;SDS011;16713;52.916;12.834;2022-07-03T15:54:00;2.10;;;1.90;;
29824;SDS011;16713;52.916;12.834;2022-07-03T15:56:30;3.22;;;2.05;;
29824;SDS011;16713;52.916;12.834;2022-07-03T15:59:01;2.50;;;1.83;;
29824;SDS011;16713;52.916;12.834;2022-07-03T16:01:31;2.60;;;2.40;;
29824;SDS011;16713;52.916;12.834;2022-07-03T16:05:07;2.78;;;2.10;;
29824;SDS011;16713;52.916;12.834;2022-07-03T16:07:13;4.82;;;1.98;;
29824;SDS011;16713;52.916;12.834;2022-07-03T16:09:41;3.13;;;2.33;;
29824;SDS011;16713;52.916;12.834;2022-07-03T16:12:09;2.65;;;2.03;;
29824;SDS011;16713;52.916;12.834;2022-07-03T16:14:41;2.75;;;1.88;;
29824;SDS011;16713;52.916;12.834;2022-07-03T16:17:08;3.63;;;1.98;;
29824;SDS011;16713;52.916;12.834;2022-07-03T16:19:39;2.53;;;2.28;;
29824;SDS011;16713;52.916;12.834;2022-07-03T16:22:07;2.15;;;1.95;;
29824;SDS011;16713;52.916;12.834;2022-07-03T16:24:34;2.67;;;2.28;;
29824;SDS011;16713;52.916;12.834;2022-07-03T16:27:01;1.90;;;1.80;;
29824;SDS011;16713;52.916;12.834;2022-07-03T16:29:29;3.45;;;2.38;;
29824;SDS011;16713;52.916;12.834;2022-07-03T16:31:56;1.83;;;1.63;;
29824;SDS011;16713;52.916;12.834;2022-07-03T16:34:30;3.72;;;1.90;;
29824;SDS011;16713;52.916;12.834;2022-07-03T16:37:01;2.10;;;1.90;;
29824;SDS011;16713;52.916;12.834;2022-07-03T16:39:36;5.05;;;2.05;;
29824;SDS011;16713;52.916;12.834;2022-07-03T16:42:05;3.20;;;2.00;;
29824;SDS011;16713;52.916;12.834;2022-07-03T16:44:33;1.83;;;1.67;;
29824;SDS011;16713;52.916;12.834;2022-07-03T16:47:03;5.30;;;2.50;;
29824;SDS011;16713;52.916;12.834;2022-07-03T16:49:33;3.70;;;1.80;;